createdAt,value
2017-12-11T00:01:54.226Z,0.90
2017-12-11T00:04:25.813Z,0.90
2017-12-11T00:06:57.403Z,1.03
2017-12-11T00:09:29.034Z,0.90
2017-12-11T00:12:00.616Z,1.10
2017-12-11T00:14:32.215Z,0.93
2017-12-11T00:17:03.822Z,0.90
2017-12-11T00:19:35.414Z,0.70
2017-12-11T00:22:07.020Z,0.80
2017-12-11T00:24:38.631Z,0.90
2017-12-11T00:27:10.231Z,1.27
2017-12-11T00:29:41.824Z,0.93
2017-12-11T00:32:13.430Z,1.00
2017-12-11T00:34:45.016Z,0.87
2017-12-11T00:37:16.635Z,1.10
2017-12-11T00:39:48.216Z,1.10
2017-12-11T00:42:19.808Z,0.97
2017-12-11T00:44:51.424Z,0.73
2017-12-11T00:47:23.008Z,0.80
2017-12-11T00:49:54.601Z,0.90
2017-12-11T00:52:26.210Z,0.90
2017-12-11T00:54:57.788Z,0.90
2017-12-11T00:57:29.688Z,0.70
2017-12-11T01:00:01.292Z,1.00
2017-12-11T01:02:32.876Z,1.00
2017-12-11T01:05:04.474Z,1.17
2017-12-11T01:07:36.093Z,0.90
2017-12-11T01:10:07.669Z,1.00
2017-12-11T01:12:39.288Z,0.97
2017-12-11T01:15:10.915Z,0.80
2017-12-11T01:17:42.477Z,0.90
2017-12-11T01:20:14.070Z,1.07
2017-12-11T01:22:45.664Z,1.20
2017-12-11T01:25:17.253Z,1.00
2017-12-11T01:27:48.853Z,0.80
2017-12-11T01:30:20.464Z,0.90
2017-12-11T01:32:52.056Z,0.80
2017-12-11T01:35:23.673Z,0.97
2017-12-11T01:37:55.559Z,0.90
2017-12-11T01:40:27.165Z,1.00
2017-12-11T01:42:58.756Z,0.90
2017-12-11T01:45:30.350Z,0.90
2017-12-11T01:48:01.925Z,0.80
2017-12-11T01:50:33.532Z,1.00
2017-12-11T01:53:05.124Z,1.00
2017-12-11T01:55:36.729Z,1.00
2017-12-11T01:58:08.313Z,0.80
2017-12-11T02:00:39.927Z,0.90
2017-12-11T02:03:11.524Z,1.00
2017-12-11T02:05:43.121Z,0.90
2017-12-11T02:08:14.728Z,0.83
2017-12-11T02:10:46.344Z,0.80
2017-12-11T02:13:17.907Z,1.00
2017-12-11T02:15:49.524Z,0.80
2017-12-11T02:18:21.122Z,0.80
2017-12-11T02:20:52.720Z,1.03
2017-12-11T02:23:24.306Z,1.00
2017-12-11T02:25:55.937Z,0.90
2017-12-11T02:28:27.540Z,1.00
2017-12-11T02:30:59.129Z,0.90
2017-12-11T02:33:30.714Z,0.90
2017-12-11T02:36:02.334Z,0.93
2017-12-11T02:38:33.925Z,0.83
2017-12-11T02:41:05.523Z,1.00
2017-12-11T02:43:37.149Z,1.00
2017-12-11T02:46:08.732Z,1.17
2017-12-11T02:48:40.316Z,0.80
2017-12-11T02:51:11.900Z,0.90
2017-12-11T02:53:43.511Z,1.00
2017-12-11T02:56:15.108Z,0.90
2017-12-11T02:58:46.712Z,1.10
2017-12-11T03:01:18.317Z,1.10
2017-12-11T03:03:49.898Z,1.27
2017-12-11T03:06:21.492Z,1.33
2017-12-11T03:08:53.077Z,0.90
2017-12-11T03:11:24.692Z,1.20
2017-12-11T03:13:56.270Z,1.30
2017-12-11T03:16:27.886Z,1.10
2017-12-11T03:18:59.452Z,1.10
2017-12-11T03:21:31.053Z,1.30
2017-12-11T03:24:02.637Z,1.00
2017-12-11T03:26:34.247Z,1.30
2017-12-11T03:29:05.848Z,1.40
2017-12-11T03:31:37.437Z,1.00
2017-12-11T03:34:09.007Z,1.93
2017-12-11T03:36:40.614Z,1.50
2017-12-11T03:39:12.216Z,1.20
2017-12-11T03:41:43.805Z,1.43
2017-12-11T03:44:15.393Z,1.13
2017-12-11T03:46:46.984Z,1.20
2017-12-11T03:49:18.585Z,1.20
2017-12-11T03:51:50.184Z,1.50
2017-12-11T03:54:21.786Z,2.17
2017-12-11T03:56:53.389Z,2.10
2017-12-11T03:59:25.003Z,1.70
2017-12-11T04:01:56.587Z,1.60
2017-12-11T04:04:28.193Z,1.37
2017-12-11T04:06:59.817Z,1.67
2017-12-11T04:09:31.392Z,1.70
2017-12-11T04:12:03.012Z,1.80
2017-12-11T04:14:34.593Z,1.93
2017-12-11T04:17:06.184Z,1.90
2017-12-11T04:19:37.771Z,2.40
2017-12-11T04:22:09.362Z,1.80
2017-12-11T04:24:40.993Z,1.80
2017-12-11T04:27:12.552Z,2.00
2017-12-11T04:29:44.132Z,2.00
2017-12-11T04:32:15.764Z,2.10
2017-12-11T04:34:47.350Z,2.77
2017-12-11T04:37:18.960Z,1.97
2017-12-11T04:39:50.548Z,2.40
2017-12-11T04:42:22.129Z,2.30
2017-12-11T04:44:53.736Z,2.20
2017-12-11T04:47:25.317Z,4.43
2017-12-11T04:49:56.914Z,2.30
2017-12-11T04:52:28.496Z,2.23
2017-12-11T04:55:00.118Z,2.20
2017-12-11T04:57:31.712Z,2.63
2017-12-11T05:00:03.335Z,3.37
2017-12-11T05:02:34.908Z,2.53
2017-12-11T05:05:06.504Z,2.20
2017-12-11T05:07:38.100Z,2.47
2017-12-11T05:10:09.692Z,2.73
2017-12-11T05:12:41.321Z,3.03
2017-12-11T05:15:12.912Z,2.70
2017-12-11T05:17:44.512Z,4.33
2017-12-11T05:20:16.101Z,3.90
2017-12-11T05:22:47.721Z,4.20
2017-12-11T05:25:19.312Z,4.10
2017-12-11T05:27:50.935Z,4.87
2017-12-11T05:30:22.519Z,4.80
2017-12-11T05:32:54.130Z,4.93
2017-12-11T05:35:25.722Z,5.20
2017-12-11T05:37:57.316Z,7.20
2017-12-11T05:40:28.908Z,3.73
2017-12-11T05:43:00.520Z,6.67
2017-12-11T05:45:32.145Z,4.30
2017-12-11T05:48:03.757Z,4.60
2017-12-11T05:50:35.332Z,4.63
2017-12-11T05:53:06.953Z,4.40
2017-12-11T05:55:38.533Z,4.97
2017-12-11T05:58:10.169Z,5.53
2017-12-11T06:00:41.775Z,5.97
2017-12-11T06:03:13.354Z,8.00
2017-12-11T06:05:45.060Z,6.80
2017-12-11T06:08:16.644Z,6.13
2017-12-11T06:10:48.274Z,7.37
2017-12-11T06:13:19.849Z,5.00
2017-12-11T06:15:51.443Z,6.07
2017-12-11T06:18:23.071Z,5.53
2017-12-11T06:20:54.723Z,5.70
2017-12-11T06:23:26.346Z,5.30
2017-12-11T06:25:57.976Z,6.60
2017-12-11T06:28:29.590Z,5.60
2017-12-11T06:31:01.208Z,7.77
2017-12-11T06:33:32.852Z,8.00
2017-12-11T06:36:04.477Z,6.73
2017-12-11T06:38:36.053Z,6.50
2017-12-11T06:41:07.659Z,8.80
2017-12-11T06:43:39.254Z,9.57
2017-12-11T06:46:10.853Z,11.07
2017-12-11T06:48:42.444Z,9.30
2017-12-11T06:51:14.065Z,7.67
2017-12-11T06:53:45.661Z,8.17
2017-12-11T06:56:17.269Z,7.43
2017-12-11T06:58:48.892Z,8.73
2017-12-11T07:01:20.464Z,8.50
2017-12-11T07:03:52.076Z,7.70
2017-12-11T07:06:23.659Z,6.67
2017-12-11T07:08:55.284Z,7.17
2017-12-11T07:11:26.885Z,9.63
2017-12-11T07:13:58.465Z,6.60
2017-12-11T07:16:30.071Z,5.93
2017-12-11T07:19:01.665Z,6.23
2017-12-11T07:21:33.573Z,5.40
2017-12-11T07:24:05.156Z,5.23
2017-12-11T07:26:36.765Z,5.63
2017-12-11T07:29:08.375Z,5.73
2017-12-11T07:31:39.966Z,5.23
2017-12-11T07:34:11.568Z,6.30
2017-12-11T07:36:43.180Z,6.10
2017-12-11T07:39:14.781Z,5.53
2017-12-11T07:41:46.418Z,5.50
2017-12-11T07:44:18.017Z,4.77
2017-12-11T07:46:49.617Z,4.67
2017-12-11T07:49:21.224Z,4.57
2017-12-11T07:51:52.836Z,5.17
2017-12-11T07:54:24.425Z,4.77
2017-12-11T07:56:56.043Z,3.20
2017-12-11T07:59:27.689Z,3.13
2017-12-11T08:01:59.273Z,3.10
2017-12-11T08:04:30.897Z,3.23
2017-12-11T08:07:02.480Z,3.30
2017-12-11T08:09:34.116Z,4.00
2017-12-11T08:12:05.704Z,5.67
2017-12-11T08:14:37.625Z,7.53
2017-12-11T08:17:09.217Z,9.47
2017-12-11T08:19:41.217Z,9.47
2017-12-11T08:22:12.854Z,9.33
2017-12-11T08:24:44.441Z,9.37
2017-12-11T08:27:16.055Z,5.00
2017-12-11T08:29:47.652Z,5.90
2017-12-11T08:32:19.256Z,6.20
2017-12-11T08:34:50.844Z,5.40
2017-12-11T08:37:22.452Z,4.27
2017-12-11T08:39:54.034Z,5.30
2017-12-11T08:42:25.652Z,7.47
2017-12-11T08:44:57.248Z,8.73
2017-12-11T08:47:28.834Z,9.03
2017-12-11T08:50:00.457Z,6.27
2017-12-11T08:52:32.055Z,5.63
2017-12-11T08:55:03.643Z,6.87
2017-12-11T08:57:35.268Z,7.37
2017-12-11T09:00:06.894Z,5.70
2017-12-11T09:02:38.490Z,6.97
2017-12-11T09:05:10.092Z,6.47
2017-12-11T09:07:41.706Z,10.00
2017-12-11T09:10:13.312Z,6.97
2017-12-11T09:12:44.913Z,6.57
2017-12-11T09:15:16.544Z,8.00
2017-12-11T09:17:48.152Z,7.70
2017-12-11T09:20:20.003Z,8.97
2017-12-11T09:22:51.612Z,7.00
2017-12-11T09:25:23.213Z,7.70
2017-12-11T09:27:54.813Z,7.37
2017-12-11T09:30:26.405Z,9.77
2017-12-11T09:32:58.014Z,4.40
2017-12-11T09:35:29.590Z,3.07
2017-12-11T09:38:01.205Z,2.70
2017-12-11T09:40:32.825Z,3.50
2017-12-11T09:43:04.446Z,3.10
2017-12-11T09:45:36.038Z,2.60
2017-12-11T09:48:07.681Z,3.23
2017-12-11T09:50:39.304Z,2.47
2017-12-11T09:53:10.888Z,2.43
2017-12-11T09:55:42.517Z,2.40
2017-12-11T09:58:14.228Z,2.30
2017-12-11T10:00:45.817Z,2.33
2017-12-11T10:03:17.448Z,2.50
2017-12-11T10:05:49.053Z,2.40
2017-12-11T10:08:20.660Z,2.40
2017-12-11T10:10:52.256Z,2.70
2017-12-11T10:13:23.873Z,2.50
2017-12-11T10:15:55.487Z,2.10
2017-12-11T10:18:27.064Z,2.13
2017-12-11T10:20:58.712Z,2.50
2017-12-11T10:23:30.282Z,2.50
2017-12-11T10:26:01.902Z,2.10
2017-12-11T10:28:33.519Z,2.33
2017-12-11T10:31:05.110Z,2.07
2017-12-11T10:33:36.698Z,2.00
2017-12-11T10:36:08.628Z,1.90
2017-12-11T10:38:40.236Z,2.03
2017-12-11T10:41:11.864Z,2.10
2017-12-11T10:43:43.473Z,2.40
2017-12-11T10:46:15.778Z,2.30
2017-12-11T10:48:47.394Z,3.07
2017-12-11T10:51:18.984Z,2.10
2017-12-11T10:53:50.592Z,2.90
2017-12-11T10:56:22.185Z,3.33
2017-12-11T10:58:53.804Z,2.33
2017-12-11T11:01:25.410Z,2.30
2017-12-11T11:03:57.031Z,2.53
2017-12-11T11:06:29.152Z,2.57
2017-12-11T11:09:00.765Z,2.40
2017-12-11T11:11:32.346Z,2.40
2017-12-11T11:14:03.973Z,2.70
2017-12-11T11:16:35.579Z,2.73
2017-12-11T11:19:07.582Z,2.43
2017-12-11T11:21:39.284Z,3.50
2017-12-11T11:24:10.899Z,2.20
2017-12-11T11:26:42.514Z,3.23
2017-12-11T11:29:14.124Z,2.70
2017-12-11T11:31:45.724Z,2.97
2017-12-11T11:34:17.321Z,2.40
2017-12-11T11:36:48.991Z,3.70
2017-12-11T11:39:20.593Z,3.90
2017-12-11T11:41:52.201Z,3.63
2017-12-11T11:44:23.803Z,3.57
2017-12-11T11:46:55.422Z,3.23
2017-12-11T11:49:27.255Z,3.10
2017-12-11T11:51:58.844Z,3.33
2017-12-11T11:54:30.416Z,2.80
2017-12-11T11:57:02.025Z,4.17
2017-12-11T11:59:33.625Z,6.57
2017-12-11T12:02:05.268Z,3.50
2017-12-11T12:04:36.873Z,4.03
2017-12-11T12:07:08.456Z,2.50
2017-12-11T12:09:40.072Z,2.90
2017-12-11T12:12:11.652Z,2.90
2017-12-11T12:14:44.242Z,3.63
2017-12-11T12:17:15.924Z,4.90
2017-12-11T12:19:47.513Z,3.63
2017-12-11T12:22:19.119Z,2.90
2017-12-11T12:24:50.734Z,3.10
2017-12-11T12:27:22.325Z,3.67
2017-12-11T12:29:53.925Z,3.30
2017-12-11T12:32:25.537Z,4.67
2017-12-11T12:34:57.125Z,6.87
2017-12-11T12:37:28.736Z,6.90
2017-12-11T12:40:00.356Z,4.80
2017-12-11T12:42:31.968Z,6.83
2017-12-11T12:45:03.598Z,4.20
2017-12-11T12:47:35.177Z,3.37
2017-12-11T12:50:06.764Z,3.70
2017-12-11T12:52:38.409Z,2.83
2017-12-11T12:55:09.976Z,4.87
2017-12-11T12:57:41.622Z,4.23
2017-12-11T13:00:13.230Z,3.17
2017-12-11T13:02:44.844Z,4.30
2017-12-11T13:05:16.453Z,3.33
2017-12-11T13:07:48.064Z,6.33
2017-12-11T13:10:19.654Z,4.40
2017-12-11T13:12:51.302Z,3.83
2017-12-11T13:15:22.944Z,5.83
2017-12-11T13:17:54.556Z,5.20
2017-12-11T13:20:26.157Z,6.13
2017-12-11T13:22:57.765Z,4.50
2017-12-11T13:25:29.382Z,5.37
2017-12-11T13:28:00.953Z,3.97
2017-12-11T13:30:32.559Z,3.77
2017-12-11T13:33:04.149Z,3.97
2017-12-11T13:35:35.824Z,3.60
2017-12-11T13:38:07.433Z,3.53
2017-12-11T13:40:39.064Z,2.97
2017-12-11T13:43:10.875Z,2.83
2017-12-11T13:45:42.488Z,3.80
2017-12-11T13:48:14.296Z,4.23
2017-12-11T13:50:45.884Z,6.20
2017-12-11T13:53:17.489Z,3.43
2017-12-11T13:55:49.110Z,3.60
2017-12-11T13:58:20.685Z,3.90
2017-12-11T14:00:52.350Z,5.70
2017-12-11T14:03:23.958Z,4.60
2017-12-11T14:05:55.552Z,3.87
2017-12-11T14:08:27.201Z,3.73
2017-12-11T14:10:58.805Z,5.47
2017-12-11T14:13:30.416Z,3.67
2017-12-11T14:16:02.038Z,3.57
2017-12-11T14:18:33.647Z,4.70
2017-12-11T14:21:05.235Z,4.60
2017-12-11T14:23:36.837Z,6.10
2017-12-11T14:26:08.425Z,3.93
2017-12-11T14:28:40.014Z,4.53
2017-12-11T14:31:11.620Z,5.10
2017-12-11T14:33:43.257Z,5.60
2017-12-11T14:36:14.860Z,6.00
2017-12-11T14:38:46.464Z,4.40
2017-12-11T14:41:18.069Z,4.80
2017-12-11T14:43:49.697Z,4.97
2017-12-11T14:46:21.307Z,8.23
2017-12-11T14:48:52.953Z,5.27
2017-12-11T14:51:24.537Z,4.63
2017-12-11T14:53:56.184Z,5.73
2017-12-11T14:56:27.814Z,4.67
2017-12-11T14:58:59.444Z,5.27
2017-12-11T15:01:31.036Z,4.73
2017-12-11T15:04:02.680Z,5.07
2017-12-11T15:06:34.281Z,7.23
2017-12-11T15:09:05.876Z,5.57
2017-12-11T15:11:37.506Z,6.43
2017-12-11T15:14:09.100Z,6.00
2017-12-11T15:16:40.725Z,7.37
2017-12-11T15:19:12.388Z,8.10
2017-12-11T15:21:43.985Z,9.13
2017-12-11T15:24:15.603Z,9.13
2017-12-11T15:26:47.194Z,9.20
2017-12-11T15:29:18.811Z,6.73
2017-12-11T15:31:50.402Z,6.43
2017-12-11T15:34:22.284Z,7.07
2017-12-11T15:36:53.925Z,8.20
2017-12-11T15:39:25.562Z,7.20
2017-12-11T15:41:57.148Z,5.23
2017-12-11T15:44:28.753Z,5.57
2017-12-11T15:47:00.377Z,3.80
2017-12-11T15:49:31.966Z,4.90
2017-12-11T15:52:03.565Z,4.33
2017-12-11T15:54:35.156Z,3.50
2017-12-11T15:57:06.753Z,4.20
2017-12-11T15:59:38.356Z,5.73
2017-12-11T16:02:09.973Z,4.73
2017-12-11T16:04:41.621Z,6.63
2017-12-11T16:07:13.241Z,7.43
2017-12-11T16:09:44.833Z,7.40
2017-12-11T16:12:17.313Z,7.57
2017-12-11T16:14:48.894Z,5.00
2017-12-11T16:17:20.540Z,5.27
2017-12-11T16:19:52.131Z,7.30
2017-12-11T16:22:23.715Z,7.70
2017-12-11T16:24:55.337Z,7.00
2017-12-11T16:27:26.945Z,11.53
2017-12-11T16:29:58.553Z,11.27
2017-12-11T16:32:30.172Z,12.00
2017-12-11T16:35:01.784Z,10.53
2017-12-11T16:37:33.393Z,10.07
2017-12-11T16:40:05.001Z,10.30
2017-12-11T16:42:36.634Z,8.47
2017-12-11T16:45:08.231Z,9.13
2017-12-11T16:47:39.816Z,8.73
2017-12-11T16:50:11.412Z,7.97
2017-12-11T16:52:43.053Z,9.83
2017-12-11T16:55:14.633Z,8.13
2017-12-11T16:57:46.275Z,9.83
2017-12-11T17:00:17.893Z,9.77
2017-12-11T17:02:49.472Z,10.33
2017-12-11T17:05:21.081Z,12.27
2017-12-11T17:07:52.683Z,10.43
2017-12-11T17:10:24.277Z,10.10
2017-12-11T17:12:55.885Z,10.53
2017-12-11T17:15:27.513Z,9.17
2017-12-11T17:17:59.097Z,8.07
2017-12-11T17:20:30.723Z,8.00
2017-12-11T17:23:02.357Z,9.17
2017-12-11T17:25:34.756Z,6.47
2017-12-11T17:28:06.344Z,5.77
2017-12-11T17:30:37.946Z,6.90
2017-12-11T17:33:09.541Z,6.07
2017-12-11T17:35:41.141Z,5.77
2017-12-11T17:38:12.783Z,4.93
2017-12-11T17:40:44.420Z,5.53
2017-12-11T17:43:16.008Z,5.47
2017-12-11T17:45:47.613Z,4.10
2017-12-11T17:48:19.214Z,5.93
2017-12-11T17:50:50.793Z,9.40
2017-12-11T17:53:22.384Z,5.53
2017-12-11T17:55:53.993Z,5.00
2017-12-11T17:58:41.244Z,5.70
2017-12-11T18:01:12.822Z,4.83
2017-12-11T18:03:44.422Z,3.00
2017-12-11T18:06:16.016Z,4.73
2017-12-11T18:08:47.616Z,3.57
2017-12-11T18:11:19.802Z,2.60
2017-12-11T18:13:51.389Z,2.77
2017-12-11T18:16:22.988Z,2.10
2017-12-11T18:18:54.585Z,2.30
2017-12-11T18:21:26.196Z,2.20
2017-12-11T18:23:57.810Z,2.30
2017-12-11T18:26:29.436Z,1.60
2017-12-11T18:29:01.324Z,6.30
2017-12-11T18:31:32.973Z,2.27
2017-12-11T18:34:05.125Z,1.70
2017-12-11T18:36:36.845Z,2.50
2017-12-11T18:39:08.454Z,2.30
2017-12-11T18:41:40.066Z,3.40
2017-12-11T18:44:11.657Z,1.93
2017-12-11T18:46:43.265Z,2.67
2017-12-11T18:49:14.872Z,1.57
2017-12-11T18:51:46.477Z,1.90
2017-12-11T18:54:18.082Z,1.77
2017-12-11T18:56:49.874Z,1.40
2017-12-11T18:59:21.484Z,3.07
2017-12-11T19:01:53.112Z,1.30
2017-12-11T19:04:24.722Z,1.40
2017-12-11T19:06:57.009Z,1.47
2017-12-11T19:09:28.641Z,1.50
2017-12-11T19:12:00.239Z,2.27
2017-12-11T19:14:31.817Z,2.10
2017-12-11T19:17:03.409Z,2.10
2017-12-11T19:19:35.013Z,2.07
2017-12-11T19:22:06.643Z,1.60
2017-12-11T19:24:38.262Z,1.67
2017-12-11T19:27:09.893Z,1.60
2017-12-11T19:29:41.539Z,2.30
2017-12-11T19:32:13.181Z,1.73
2017-12-11T19:34:44.833Z,1.50
2017-12-11T19:37:16.426Z,1.93
2017-12-11T19:39:48.051Z,1.70
2017-12-11T19:42:20.554Z,1.73
2017-12-11T19:44:52.217Z,2.30
2017-12-11T19:47:23.827Z,1.60
2017-12-11T19:49:55.433Z,1.67
2017-12-11T19:52:27.686Z,1.67
2017-12-11T19:54:59.334Z,2.90
2017-12-11T19:57:30.960Z,2.53
2017-12-11T20:00:02.563Z,1.77
2017-12-11T20:02:34.144Z,6.53
2017-12-11T20:05:05.756Z,1.70
2017-12-11T20:07:37.664Z,1.90
2017-12-11T20:10:09.256Z,1.50
2017-12-11T20:12:40.844Z,1.70
2017-12-11T20:15:12.913Z,3.13
2017-12-11T20:17:44.485Z,1.50
2017-12-11T20:20:16.091Z,1.63
2017-12-11T20:22:47.670Z,1.70
2017-12-11T20:25:19.324Z,1.80
2017-12-11T20:27:50.904Z,1.77
2017-12-11T20:30:22.499Z,1.77
2017-12-11T20:32:54.080Z,1.60
2017-12-11T20:35:25.727Z,1.90
2017-12-11T20:37:57.332Z,1.40
2017-12-11T20:40:28.977Z,1.50
2017-12-11T20:43:00.576Z,1.60
2017-12-11T20:45:32.158Z,1.43
2017-12-11T20:48:04.431Z,1.63
2017-12-11T20:50:36.013Z,1.60
2017-12-11T20:53:07.644Z,1.57
2017-12-11T20:55:39.286Z,1.60
2017-12-11T20:58:10.894Z,1.80
2017-12-11T21:00:42.494Z,1.80
2017-12-11T21:03:14.121Z,1.90
2017-12-11T21:05:45.709Z,1.87
2017-12-11T21:08:17.329Z,2.50
2017-12-11T21:10:48.909Z,2.10
2017-12-11T21:13:20.825Z,2.03
2017-12-11T21:15:52.432Z,2.30
2017-12-11T21:18:24.035Z,2.30
2017-12-11T21:20:55.633Z,2.10
2017-12-11T21:23:27.702Z,2.20
2017-12-11T21:25:59.265Z,2.77
2017-12-11T21:28:30.867Z,2.50
2017-12-11T21:31:02.461Z,2.40
2017-12-11T21:33:35.098Z,2.40
2017-12-11T21:36:06.678Z,2.60
2017-12-11T21:38:38.264Z,2.57
2017-12-11T21:41:09.866Z,2.50
2017-12-11T21:43:41.449Z,2.53
2017-12-11T21:46:13.101Z,2.37
2017-12-11T21:48:49.232Z,2.57
2017-12-11T21:51:20.883Z,2.30
2017-12-11T21:53:52.488Z,2.00
2017-12-11T21:56:24.080Z,2.07
2017-12-11T21:58:55.658Z,2.30
2017-12-11T22:01:27.271Z,2.07
2017-12-11T22:03:58.849Z,2.13
2017-12-11T22:06:30.458Z,2.23
2017-12-11T22:09:02.053Z,3.73
2017-12-11T22:11:33.662Z,1.97
2017-12-11T22:14:05.288Z,2.00
2017-12-11T22:16:36.897Z,1.83
2017-12-11T22:19:08.479Z,1.80
2017-12-11T22:21:40.091Z,1.60
2017-12-11T22:24:11.687Z,1.60
2017-12-11T22:26:43.294Z,2.13
2017-12-11T22:29:17.354Z,1.80
2017-12-11T22:31:49.488Z,1.50
2017-12-11T22:34:21.120Z,1.37
2017-12-11T22:36:52.734Z,1.33
2017-12-11T22:39:24.353Z,1.40
2017-12-11T22:41:55.941Z,1.10
2017-12-11T22:44:27.547Z,1.27
2017-12-11T22:46:59.122Z,1.10
2017-12-11T22:49:30.726Z,1.20
2017-12-11T22:52:02.332Z,1.23
2017-12-11T22:54:33.926Z,1.10
2017-12-11T22:57:05.513Z,1.23
2017-12-11T22:59:37.149Z,1.40
2017-12-11T23:02:08.828Z,1.10
2017-12-11T23:04:40.432Z,1.20
2017-12-11T23:07:12.030Z,1.20
2017-12-11T23:09:43.636Z,1.70
2017-12-11T23:12:15.245Z,1.33
2017-12-11T23:14:46.930Z,1.37
2017-12-11T23:17:18.557Z,1.20
2017-12-11T23:19:50.677Z,1.30
2017-12-11T23:22:22.308Z,1.10
2017-12-11T23:24:53.997Z,1.50
2017-12-11T23:27:25.584Z,1.70
2017-12-11T23:29:57.268Z,1.13
2017-12-11T23:32:28.893Z,5.10
2017-12-11T23:35:00.506Z,1.60
2017-12-11T23:37:32.104Z,1.60
2017-12-11T23:40:03.705Z,1.50
2017-12-11T23:42:35.294Z,1.47
2017-12-11T23:45:06.892Z,1.20
2017-12-11T23:47:38.500Z,1.53
2017-12-11T23:50:10.096Z,1.53
2017-12-11T23:52:41.667Z,1.50
2017-12-11T23:55:13.267Z,1.83
2017-12-11T23:57:44.856Z,1.20
